createdAt,value
2018-05-14T00:00:05.534Z,17.88
2018-05-14T00:01:06.337Z,17.81
2018-05-14T00:02:05.958Z,17.75
2018-05-14T00:03:05.850Z,17.81
2018-05-14T00:04:10.767Z,17.75
2018-05-14T00:05:06.269Z,17.75
2018-05-14T00:06:06.485Z,17.81
2018-05-14T00:07:06.009Z,17.75
2018-05-14T00:08:05.441Z,18.00
2018-05-14T00:09:06.326Z,17.94
2018-05-14T00:10:05.786Z,17.88
2018-05-14T00:11:06.598Z,17.81
2018-05-14T00:12:05.994Z,17.94
2018-05-14T00:13:06.097Z,17.88
2018-05-14T00:14:10.762Z,17.75
2018-05-14T00:15:06.172Z,17.69
2018-05-14T00:16:05.606Z,17.62
2018-05-14T00:17:06.469Z,17.69
2018-05-14T00:18:06.811Z,17.62
2018-05-14T00:19:06.402Z,17.56
2018-05-14T00:20:06.001Z,17.56
2018-05-14T00:21:06.168Z,17.50
2018-05-14T00:22:10.656Z,17.56
2018-05-14T00:23:06.403Z,17.56
2018-05-14T00:24:05.837Z,17.56
2018-05-14T00:25:10.962Z,17.44
2018-05-14T00:26:05.450Z,17.38
2018-05-14T00:27:06.413Z,17.38
2018-05-14T00:28:06.379Z,17.44
2018-05-14T00:29:05.921Z,17.56
2018-05-14T00:30:06.370Z,17.56
2018-05-14T00:31:05.920Z,17.62
2018-05-14T00:32:05.927Z,17.62
2018-05-14T00:33:06.033Z,17.56
2018-05-14T00:34:05.930Z,17.56
2018-05-14T00:35:11.268Z,17.50
2018-05-14T00:36:06.190Z,17.62
2018-05-14T00:37:05.701Z,17.62
2018-05-14T00:38:05.567Z,17.50
2018-05-14T00:39:05.773Z,17.44
2018-05-14T00:40:05.788Z,17.44
2018-05-14T00:41:05.609Z,17.38
2018-05-14T00:42:05.995Z,17.25
2018-05-14T00:43:05.382Z,17.25
2018-05-14T00:44:06.236Z,17.31
2018-05-14T00:45:05.788Z,17.25
2018-05-14T00:46:05.756Z,17.25
2018-05-14T00:47:05.532Z,17.25
2018-05-14T00:48:06.051Z,17.38
2018-05-14T00:49:06.108Z,17.38
2018-05-14T00:50:10.694Z,17.38
2018-05-14T00:51:06.127Z,17.38
2018-05-14T00:52:05.543Z,17.50
2018-05-14T00:53:06.320Z,17.56
2018-05-14T00:54:06.012Z,17.44
2018-05-14T00:55:06.328Z,17.56
2018-05-14T00:56:05.544Z,17.44
2018-05-14T00:57:10.894Z,17.44
2018-05-14T00:58:06.414Z,17.50
2018-05-14T00:59:06.103Z,17.50
2018-05-14T01:00:06.279Z,17.44
2018-05-14T01:01:06.013Z,17.44
2018-05-14T01:02:06.163Z,17.38
2018-05-14T01:03:11.136Z,17.56
2018-05-14T01:04:05.689Z,17.62
2018-05-14T01:05:06.387Z,17.50
2018-05-14T01:06:11.414Z,17.44
2018-05-14T01:07:06.091Z,17.38
2018-05-14T01:08:10.631Z,17.31
2018-05-14T01:09:06.258Z,17.19
2018-05-14T01:10:05.706Z,17.31
2018-05-14T01:11:05.453Z,17.31
2018-05-14T01:12:06.221Z,17.31
2018-05-14T01:13:05.613Z,17.31
2018-05-14T01:14:05.686Z,17.38
2018-05-14T01:15:05.796Z,17.50
2018-05-14T01:16:05.609Z,17.38
2018-05-14T01:17:06.462Z,17.25
2018-05-14T01:18:06.877Z,17.25
2018-05-14T01:19:06.251Z,17.25
2018-05-14T01:20:10.960Z,17.19
2018-05-14T01:21:05.454Z,17.19
2018-05-14T01:22:06.318Z,17.19
2018-05-14T01:23:05.613Z,17.19
2018-05-14T01:24:05.610Z,17.25
2018-05-14T01:25:06.494Z,17.12
2018-05-14T01:26:06.718Z,17.12
2018-05-14T01:27:06.079Z,17.06
2018-05-14T01:28:05.922Z,17.00
2018-05-14T01:29:05.925Z,17.06
2018-05-14T01:30:05.697Z,17.00
2018-05-14T01:31:11.108Z,16.94
2018-05-14T01:32:06.249Z,16.88
2018-05-14T01:33:06.139Z,16.94
2018-05-14T01:34:05.696Z,16.94
2018-05-14T01:35:05.450Z,16.94
2018-05-14T01:36:06.245Z,17.06
2018-05-14T01:37:05.750Z,17.12
2018-05-14T01:38:06.417Z,17.06
2018-05-14T01:39:06.185Z,17.06
2018-05-14T01:40:05.931Z,17.06
2018-05-14T01:41:05.614Z,17.00
2018-05-14T01:42:06.163Z,17.00
2018-05-14T01:43:05.616Z,17.00
2018-05-14T01:44:06.170Z,16.94
2018-05-14T01:45:05.993Z,16.94
2018-05-14T01:46:06.200Z,16.94
2018-05-14T01:47:06.176Z,17.06
2018-05-14T01:48:05.527Z,17.06
2018-05-14T01:49:06.183Z,17.00
2018-05-14T01:50:05.728Z,17.12
2018-05-14T01:51:06.090Z,17.00
2018-05-14T01:52:05.857Z,17.06
2018-05-14T01:53:05.837Z,17.00
2018-05-14T01:54:05.593Z,16.94
2018-05-14T01:55:06.083Z,16.88
2018-05-14T01:56:05.868Z,16.94
2018-05-14T01:57:06.351Z,16.94
2018-05-14T01:58:06.333Z,16.88
2018-05-14T01:59:05.709Z,16.88
2018-05-14T02:00:05.601Z,16.81
2018-05-14T02:01:06.219Z,16.75
2018-05-14T02:02:05.699Z,16.62
2018-05-14T02:03:06.011Z,16.62
2018-05-14T02:04:05.855Z,16.56
2018-05-14T02:05:05.936Z,16.62
2018-05-14T02:06:06.344Z,16.69
2018-05-14T02:07:05.705Z,16.69
2018-05-14T02:08:11.137Z,16.62
2018-05-14T02:09:05.679Z,16.69
2018-05-14T02:10:05.868Z,16.69
2018-05-14T02:11:07.070Z,16.62
2018-05-14T02:12:05.951Z,16.69
2018-05-14T02:13:06.766Z,16.62
2018-05-14T02:14:06.331Z,16.50
2018-05-14T02:15:05.931Z,16.81
2018-05-14T02:16:06.508Z,16.81
2018-05-14T02:17:06.828Z,16.75
2018-05-14T02:18:11.211Z,16.88
2018-05-14T02:19:05.653Z,16.88
2018-05-14T02:20:06.011Z,16.81
2018-05-14T02:21:05.950Z,16.81
2018-05-14T02:22:06.256Z,16.81
2018-05-14T02:23:06.414Z,16.75
2018-05-14T02:24:06.189Z,16.75
2018-05-14T02:25:10.970Z,16.62
2018-05-14T02:26:05.534Z,16.50
2018-05-14T02:27:11.183Z,16.50
2018-05-14T02:28:05.375Z,16.44
2018-05-14T02:29:07.201Z,16.31
2018-05-14T02:30:10.933Z,16.25
2018-05-14T02:31:06.175Z,16.31
2018-05-14T02:32:06.208Z,16.19
2018-05-14T02:33:06.335Z,16.12
2018-05-14T02:34:06.097Z,16.12
2018-05-14T02:35:06.368Z,16.12
2018-05-14T02:36:06.123Z,16.06
2018-05-14T02:37:05.765Z,16.19
2018-05-14T02:38:06.049Z,16.19
2018-05-14T02:39:05.682Z,16.31
2018-05-14T02:40:10.561Z,16.25
2018-05-14T02:41:10.748Z,16.12
2018-05-14T02:42:05.932Z,16.19
2018-05-14T02:43:06.331Z,16.06
2018-05-14T02:44:06.484Z,16.06
2018-05-14T02:45:06.506Z,16.19
2018-05-14T02:46:06.340Z,16.25
2018-05-14T02:47:05.774Z,16.25
2018-05-14T02:48:05.859Z,16.31
2018-05-14T02:49:05.802Z,16.25
2018-05-14T02:50:06.097Z,16.31
2018-05-14T02:51:05.869Z,16.31
2018-05-14T02:52:05.691Z,16.19
2018-05-14T02:53:06.332Z,16.25
2018-05-14T02:54:06.446Z,16.38
2018-05-14T02:55:06.338Z,16.25
2018-05-14T02:56:05.372Z,16.62
2018-05-14T02:57:06.097Z,16.75
2018-05-14T02:58:05.931Z,17.00
2018-05-14T02:59:06.044Z,17.12
2018-05-14T03:00:06.337Z,17.00
2018-05-14T03:01:05.937Z,17.12
2018-05-14T03:02:10.994Z,17.44
2018-05-14T03:03:06.251Z,17.62
2018-05-14T03:04:06.495Z,17.50
2018-05-14T03:05:06.160Z,17.56
2018-05-14T03:06:06.257Z,17.69
2018-05-14T03:07:05.690Z,17.56
2018-05-14T03:08:06.573Z,17.56
2018-05-14T03:09:05.771Z,17.44
2018-05-14T03:10:06.149Z,17.31
2018-05-14T03:11:05.458Z,17.19
2018-05-14T03:12:06.179Z,17.00
2018-05-14T03:13:06.299Z,16.94
2018-05-14T03:14:05.867Z,17.00
2018-05-14T03:15:06.428Z,16.88
2018-05-14T03:16:11.506Z,16.81
2018-05-14T03:17:06.140Z,16.75
2018-05-14T03:18:05.507Z,17.00
2018-05-14T03:19:05.858Z,17.06
2018-05-14T03:20:06.090Z,17.00
2018-05-14T03:21:05.828Z,16.88
2018-05-14T03:22:06.181Z,16.94
2018-05-14T03:23:05.704Z,17.06
2018-05-14T03:24:05.929Z,17.38
2018-05-14T03:25:11.457Z,17.38
2018-05-14T03:26:05.771Z,17.31
2018-05-14T03:27:06.112Z,17.44
2018-05-14T03:28:10.798Z,17.44
2018-05-14T03:29:05.459Z,17.38
2018-05-14T03:30:06.524Z,17.38
2018-05-14T03:31:05.703Z,17.25
2018-05-14T03:32:05.447Z,17.38
2018-05-14T03:33:05.937Z,17.56
2018-05-14T03:34:05.776Z,17.56
2018-05-14T03:35:05.702Z,18.44
2018-05-14T03:36:05.851Z,18.25
2018-05-14T03:37:06.020Z,18.50
2018-05-14T03:38:06.257Z,18.62
2018-05-14T03:39:05.633Z,18.50
2018-05-14T03:40:05.533Z,18.56
2018-05-14T03:41:06.559Z,18.69
2018-05-14T03:42:06.262Z,18.50
2018-05-14T03:43:05.927Z,18.44
2018-05-14T03:44:06.012Z,18.38
2018-05-14T03:45:05.777Z,18.56
2018-05-14T03:46:06.301Z,18.75
2018-05-14T03:47:06.335Z,19.00
2018-05-14T03:48:05.933Z,18.88
2018-05-14T03:49:05.615Z,18.94
2018-05-14T03:50:11.168Z,18.69
2018-05-14T03:51:05.617Z,18.44
2018-05-14T03:52:06.583Z,18.19
2018-05-14T03:53:06.092Z,18.25
2018-05-14T03:54:06.021Z,18.19
2018-05-14T03:55:05.775Z,18.19
2018-05-14T03:56:05.944Z,18.06
2018-05-14T03:57:06.064Z,18.06
2018-05-14T03:58:05.542Z,18.00
2018-05-14T03:59:05.770Z,17.88
2018-05-14T04:00:05.544Z,18.06
2018-05-14T04:01:06.556Z,17.88
2018-05-14T04:02:06.316Z,17.88
2018-05-14T04:03:06.255Z,17.81
2018-05-14T04:04:05.812Z,17.75
2018-05-14T04:05:05.857Z,17.88
2018-05-14T04:06:06.765Z,17.94
2018-05-14T04:07:06.433Z,18.06
2018-05-14T04:08:05.530Z,18.00
2018-05-14T04:09:11.218Z,18.31
2018-05-14T04:10:05.854Z,18.81
2018-05-14T04:11:06.804Z,19.00
2018-05-14T04:12:06.954Z,18.88
2018-05-14T04:13:06.195Z,18.62
2018-05-14T04:14:06.160Z,18.69
2018-05-14T04:15:05.558Z,18.75
2018-05-14T04:16:06.341Z,18.81
2018-05-14T04:17:07.220Z,19.00
2018-05-14T04:18:05.997Z,19.00
2018-05-14T04:19:05.613Z,19.06
2018-05-14T04:20:11.413Z,19.06
2018-05-14T04:21:05.605Z,19.06
2018-05-14T04:22:06.103Z,19.06
2018-05-14T04:23:06.876Z,19.12
2018-05-14T04:24:06.029Z,19.00
2018-05-14T04:25:06.417Z,19.00
2018-05-14T04:26:06.179Z,19.00
2018-05-14T04:27:06.351Z,19.06
2018-05-14T04:28:06.184Z,19.00
2018-05-14T04:29:06.162Z,19.12
2018-05-14T04:30:06.193Z,19.38
2018-05-14T04:31:05.585Z,19.44
2018-05-14T04:32:05.779Z,19.62
2018-05-14T04:33:06.414Z,19.69
2018-05-14T04:34:06.177Z,19.75
2018-05-14T04:35:11.052Z,19.69
2018-05-14T04:36:05.783Z,19.81
2018-05-14T04:37:06.496Z,20.00
2018-05-14T04:38:05.526Z,20.25
2018-05-14T04:39:06.109Z,20.31
2018-05-14T04:40:06.010Z,20.56
2018-05-14T04:41:06.018Z,20.94
2018-05-14T04:42:06.011Z,20.94
2018-05-14T04:43:06.350Z,20.88
2018-05-14T04:44:06.183Z,20.81
2018-05-14T04:45:06.315Z,21.25
2018-05-14T04:46:06.636Z,21.38
2018-05-14T04:47:06.441Z,21.44
2018-05-14T04:48:06.547Z,21.50
2018-05-14T04:49:06.136Z,21.50
2018-05-14T04:50:06.196Z,21.62
2018-05-14T04:51:10.778Z,22.19
2018-05-14T04:52:06.659Z,22.75
2018-05-14T04:53:06.198Z,22.81
2018-05-14T04:54:11.155Z,22.75
2018-05-14T04:55:06.069Z,22.88
2018-05-14T04:56:06.332Z,22.81
2018-05-14T04:57:06.592Z,22.94
2018-05-14T04:58:10.544Z,22.94
2018-05-14T04:59:05.870Z,22.88
2018-05-14T05:00:06.099Z,23.00
2018-05-14T05:01:06.092Z,23.12
2018-05-14T05:02:06.180Z,23.19
2018-05-14T05:03:06.183Z,23.38
2018-05-14T05:04:05.787Z,23.38
2018-05-14T05:05:06.427Z,23.62
2018-05-14T05:06:06.595Z,23.94
2018-05-14T05:07:06.303Z,24.06
2018-05-14T05:08:06.412Z,24.06
2018-05-14T05:09:06.221Z,23.94
2018-05-14T05:10:06.153Z,23.94
2018-05-14T05:11:06.026Z,24.00
2018-05-14T05:12:06.028Z,24.12
2018-05-14T05:13:11.139Z,24.25
2018-05-14T05:14:05.874Z,24.50
2018-05-14T05:15:05.707Z,24.56
2018-05-14T05:16:06.508Z,25.00
2018-05-14T05:17:06.781Z,25.31
2018-05-14T05:18:06.179Z,25.25
2018-05-14T05:19:06.426Z,25.31
2018-05-14T05:20:06.500Z,25.50
2018-05-14T05:21:05.623Z,25.62
2018-05-14T05:22:06.266Z,26.06
2018-05-14T05:23:06.083Z,26.50
2018-05-14T05:24:05.916Z,26.88
2018-05-14T05:25:06.028Z,27.06
2018-05-14T05:26:06.253Z,27.19
2018-05-14T05:27:05.952Z,27.50
2018-05-14T05:28:05.754Z,28.00
2018-05-14T05:29:06.013Z,28.31
2018-05-14T05:30:06.384Z,28.62
2018-05-14T05:31:06.195Z,29.06
2018-05-14T05:32:06.587Z,29.12
2018-05-14T05:33:05.535Z,29.31
2018-05-14T05:34:05.742Z,29.12
2018-05-14T05:35:06.105Z,29.56
2018-05-14T05:36:06.261Z,29.56
2018-05-14T05:37:06.268Z,29.06
2018-05-14T05:38:06.339Z,29.44
2018-05-14T05:39:06.339Z,29.56
2018-05-14T05:40:11.061Z,29.56
2018-05-14T05:41:05.740Z,29.81
2018-05-14T05:42:06.671Z,29.19
2018-05-14T05:43:05.637Z,29.50
2018-05-14T05:44:05.724Z,29.50
2018-05-14T05:45:06.120Z,29.56
2018-05-14T05:46:06.649Z,29.56
2018-05-14T05:47:05.965Z,29.69
2018-05-14T05:48:05.928Z,29.50
2018-05-14T05:49:05.727Z,29.62
2018-05-14T05:50:05.644Z,29.50
2018-05-14T05:51:05.638Z,29.38
2018-05-14T05:52:06.521Z,29.50
2018-05-14T05:53:06.506Z,29.81
2018-05-14T05:54:06.614Z,30.12
2018-05-14T05:55:06.344Z,30.25
2018-05-14T05:56:05.797Z,29.69
2018-05-14T05:57:05.758Z,30.25
2018-05-14T05:58:05.774Z,30.44
2018-05-14T05:59:05.834Z,30.38
2018-05-14T06:00:06.268Z,30.62
2018-05-14T06:01:05.937Z,30.50
2018-05-14T06:02:06.307Z,30.88
2018-05-14T06:03:06.436Z,30.75
2018-05-14T06:04:05.860Z,30.69
2018-05-14T06:05:06.093Z,30.62
2018-05-14T06:06:05.752Z,30.50
2018-05-14T06:07:06.483Z,30.31
2018-05-14T06:08:06.221Z,30.25
2018-05-14T06:09:11.218Z,30.00
2018-05-14T06:10:06.202Z,30.00
2018-05-14T06:11:05.871Z,29.88
2018-05-14T06:12:06.059Z,29.75
2018-05-14T06:13:05.781Z,29.12
2018-05-14T06:14:06.340Z,28.56
2018-05-14T06:15:05.938Z,28.56
2018-05-14T06:16:06.019Z,28.31
2018-05-14T06:17:06.600Z,28.25
2018-05-14T06:18:05.551Z,28.06
2018-05-14T06:19:05.672Z,28.06
2018-05-14T06:20:05.553Z,28.31
2018-05-14T06:21:06.346Z,28.44
2018-05-14T06:22:06.180Z,28.19
2018-05-14T06:23:06.960Z,28.12
2018-05-14T06:24:07.065Z,28.00
2018-05-14T06:25:06.273Z,28.06
2018-05-14T06:26:05.543Z,28.00
2018-05-14T06:27:06.657Z,27.81
2018-05-14T06:28:05.780Z,27.62
2018-05-14T06:29:06.182Z,27.44
2018-05-14T06:30:05.876Z,27.31
2018-05-14T06:31:06.586Z,27.25
2018-05-14T06:32:06.855Z,27.12
2018-05-14T06:33:10.785Z,27.06
2018-05-14T06:34:06.260Z,27.38
2018-05-14T06:35:06.497Z,27.50
2018-05-14T06:36:06.431Z,27.56
2018-05-14T06:37:06.751Z,27.62
2018-05-14T06:38:05.865Z,27.62
2018-05-14T06:39:10.801Z,27.62
2018-05-14T06:40:06.624Z,27.69
2018-05-14T06:41:06.627Z,27.75
2018-05-14T06:42:06.665Z,27.75
2018-05-14T06:43:05.697Z,27.50
2018-05-14T06:44:06.597Z,27.50
2018-05-14T06:45:06.207Z,27.56
2018-05-14T06:46:11.224Z,27.56
2018-05-14T06:47:05.872Z,27.56
2018-05-14T06:48:06.025Z,27.38
2018-05-14T06:49:06.187Z,27.38
2018-05-14T06:50:06.176Z,27.31
2018-05-14T06:51:06.269Z,27.44
2018-05-14T06:52:06.037Z,27.62
2018-05-14T06:53:06.033Z,27.75
2018-05-14T06:54:06.112Z,27.75
2018-05-14T06:55:06.319Z,27.81
2018-05-14T06:56:05.943Z,27.88
2018-05-14T06:57:06.012Z,27.62
2018-05-14T06:58:10.471Z,27.62
2018-05-14T06:59:05.862Z,27.62
2018-05-14T07:00:05.878Z,27.75
2018-05-14T07:01:06.264Z,27.88
2018-05-14T07:02:06.270Z,27.81
2018-05-14T07:03:06.322Z,27.75
2018-05-14T07:04:06.347Z,27.81
2018-05-14T07:05:05.634Z,27.69
2018-05-14T07:06:06.455Z,27.69
2018-05-14T07:07:05.636Z,27.75
2018-05-14T07:08:05.794Z,27.56
2018-05-14T07:09:06.934Z,27.56
2018-05-14T07:10:06.461Z,27.50
2018-05-14T07:11:06.187Z,27.56
2018-05-14T07:12:06.415Z,27.56
2018-05-14T07:13:06.670Z,27.50
2018-05-14T07:14:06.110Z,27.50
2018-05-14T07:15:06.429Z,27.62
2018-05-14T07:16:06.547Z,27.62
2018-05-14T07:17:06.185Z,27.50
2018-05-14T07:18:05.936Z,27.38
2018-05-14T07:19:06.317Z,27.25
2018-05-14T07:20:05.553Z,27.25
2018-05-14T07:21:06.205Z,27.19
2018-05-14T07:22:06.142Z,27.06
2018-05-14T07:23:06.352Z,27.00
2018-05-14T07:24:06.532Z,27.00
2018-05-14T07:25:05.790Z,27.00
2018-05-14T07:26:06.039Z,27.12
2018-05-14T07:27:06.185Z,27.12
2018-05-14T07:28:06.177Z,27.25
2018-05-14T07:29:06.242Z,27.31
2018-05-14T07:30:05.804Z,27.31
2018-05-14T07:31:05.945Z,27.31
2018-05-14T07:32:05.809Z,27.12
2018-05-14T07:33:06.157Z,27.25
2018-05-14T07:34:06.604Z,27.31
2018-05-14T07:35:06.331Z,27.38
2018-05-14T07:36:05.959Z,27.31
2018-05-14T07:37:06.742Z,27.44
2018-05-14T07:38:05.899Z,27.44
2018-05-14T07:39:06.022Z,27.44
2018-05-14T07:40:05.725Z,27.38
2018-05-14T07:41:05.739Z,27.31
2018-05-14T07:42:06.348Z,27.25
2018-05-14T07:43:06.447Z,27.31
2018-05-14T07:44:06.702Z,27.31
2018-05-14T07:45:05.634Z,27.12
2018-05-14T07:46:05.941Z,26.94
2018-05-14T07:47:05.718Z,26.94
2018-05-14T07:48:06.038Z,26.88
2018-05-14T07:49:06.197Z,26.81
2018-05-14T07:50:05.781Z,26.88
2018-05-14T07:51:05.871Z,27.00
2018-05-14T07:52:06.698Z,27.12
2018-05-14T07:53:06.539Z,27.12
2018-05-14T07:54:11.593Z,27.00
2018-05-14T07:55:06.488Z,27.06
2018-05-14T07:56:11.754Z,27.06
2018-05-14T07:57:06.706Z,27.19
2018-05-14T07:58:06.469Z,27.19
2018-05-14T07:59:11.158Z,27.19
2018-05-14T08:00:06.218Z,27.00
2018-05-14T08:01:06.419Z,26.88
2018-05-14T08:02:06.599Z,26.81
2018-05-14T08:03:06.554Z,26.75
2018-05-14T08:04:06.810Z,26.62
2018-05-14T08:05:06.620Z,26.62
2018-05-14T08:06:06.419Z,26.56
2018-05-14T08:07:06.027Z,26.56
2018-05-14T08:08:05.650Z,26.62
2018-05-14T08:09:05.656Z,26.81
2018-05-14T08:10:11.538Z,26.94
2018-05-14T08:11:06.720Z,27.19
2018-05-14T08:12:05.910Z,27.31
2018-05-14T08:13:05.795Z,27.31
2018-05-14T08:14:06.543Z,27.25
2018-05-14T08:15:05.837Z,27.19
2018-05-14T08:16:06.133Z,27.25
2018-05-14T08:17:11.079Z,27.19
2018-05-14T08:18:06.405Z,27.38
2018-05-14T08:19:05.720Z,27.31
2018-05-14T08:20:06.036Z,27.19
2018-05-14T08:21:05.637Z,27.06
2018-05-14T08:22:05.896Z,27.00
2018-05-14T08:23:05.958Z,27.00
2018-05-14T08:24:10.856Z,27.06
2018-05-14T08:25:06.357Z,27.00
2018-05-14T08:26:05.623Z,27.00
2018-05-14T08:27:05.743Z,26.88
2018-05-14T08:28:06.366Z,26.94
2018-05-14T08:29:05.945Z,26.81
2018-05-14T08:30:05.863Z,26.81
2018-05-14T08:31:10.583Z,26.81
2018-05-14T08:32:05.790Z,26.69
2018-05-14T08:33:06.358Z,26.62
2018-05-14T08:34:06.278Z,26.56
2018-05-14T08:35:05.998Z,26.56
2018-05-14T08:36:05.634Z,26.56
2018-05-14T08:37:06.434Z,26.50
2018-05-14T08:38:05.710Z,26.56
2018-05-14T08:39:05.622Z,26.56
2018-05-14T08:40:06.090Z,26.56
2018-05-14T08:41:05.994Z,26.44
2018-05-14T08:42:05.461Z,26.38
2018-05-14T08:43:06.218Z,26.38
2018-05-14T08:44:06.921Z,26.50
2018-05-14T08:45:05.780Z,26.50
2018-05-14T08:46:11.216Z,26.56
2018-05-14T08:47:05.894Z,26.62
2018-05-14T08:48:05.754Z,26.75
2018-05-14T08:49:05.626Z,26.94
2018-05-14T08:50:06.498Z,27.00
2018-05-14T08:51:05.654Z,27.00
2018-05-14T08:52:06.264Z,27.12
2018-05-14T08:53:05.859Z,27.31
2018-05-14T08:54:05.642Z,27.31
2018-05-14T08:55:05.650Z,27.31
2018-05-14T08:56:05.784Z,27.31
2018-05-14T08:57:05.849Z,27.12
2018-05-14T08:58:05.728Z,26.94
2018-05-14T08:59:06.113Z,27.00
2018-05-14T09:00:05.863Z,26.81
2018-05-14T09:01:05.927Z,26.62
2018-05-14T09:02:06.191Z,26.62
2018-05-14T09:03:05.625Z,26.62
2018-05-14T09:04:06.390Z,26.62
2018-05-14T09:05:06.249Z,26.69
2018-05-14T09:06:05.778Z,26.75
2018-05-14T09:07:05.943Z,26.94
2018-05-14T09:08:10.543Z,26.75
2018-05-14T09:09:06.108Z,26.88
2018-05-14T09:10:06.020Z,26.88
2018-05-14T09:11:05.458Z,26.94
2018-05-14T09:12:06.393Z,27.06
2018-05-14T09:13:05.607Z,26.94
2018-05-14T09:14:06.356Z,26.81
2018-05-14T09:15:06.025Z,26.75
2018-05-14T09:16:05.540Z,26.62
2018-05-14T09:17:06.190Z,26.75
2018-05-14T09:18:05.755Z,26.81
2018-05-14T09:19:06.169Z,26.94
2018-05-14T09:20:05.475Z,26.94
2018-05-14T09:21:06.117Z,27.00
2018-05-14T09:22:05.799Z,26.94
2018-05-14T09:23:06.015Z,26.88
2018-05-14T09:24:06.345Z,27.00
2018-05-14T09:25:05.821Z,27.06
2018-05-14T09:26:06.674Z,27.12
2018-05-14T09:27:06.261Z,27.12
2018-05-14T09:28:06.094Z,26.88
2018-05-14T09:29:05.847Z,26.88
2018-05-14T09:30:05.548Z,26.81
2018-05-14T09:31:06.589Z,26.69
2018-05-14T09:32:05.793Z,26.75
2018-05-14T09:33:05.728Z,26.81
2018-05-14T09:34:06.742Z,26.69
2018-05-14T09:35:05.948Z,26.50
2018-05-14T09:36:05.797Z,26.44
2018-05-14T09:37:05.591Z,26.31
2018-05-14T09:38:10.802Z,26.38
2018-05-14T09:39:06.474Z,26.50
2018-05-14T09:40:05.948Z,26.38
2018-05-14T09:41:05.573Z,26.31
2018-05-14T09:42:05.708Z,26.19
2018-05-14T09:43:06.708Z,26.12
2018-05-14T09:44:05.788Z,26.25
2018-05-14T09:45:05.957Z,26.25
2018-05-14T09:46:05.965Z,26.31
2018-05-14T09:47:06.338Z,26.31
2018-05-14T09:48:06.019Z,26.25
2018-05-14T09:49:06.402Z,26.25
2018-05-14T09:50:05.461Z,26.31
2018-05-14T09:51:05.784Z,26.44
2018-05-14T09:52:05.864Z,26.56
2018-05-14T09:53:06.026Z,26.56
2018-05-14T09:54:06.770Z,26.62
2018-05-14T09:55:06.343Z,26.56
2018-05-14T09:56:06.123Z,26.56
2018-05-14T09:57:06.002Z,26.50
2018-05-14T09:58:05.578Z,26.62
2018-05-14T09:59:06.277Z,26.81
2018-05-14T10:00:05.615Z,26.75
2018-05-14T10:01:05.545Z,26.62
2018-05-14T10:02:05.932Z,26.69
2018-05-14T10:03:11.529Z,26.56
2018-05-14T10:04:06.223Z,26.56
2018-05-14T10:05:05.628Z,26.44
2018-05-14T10:06:06.346Z,26.44
2018-05-14T10:07:06.187Z,26.50
2018-05-14T10:08:05.941Z,26.56
2018-05-14T10:09:06.345Z,26.50
2018-05-14T10:10:05.946Z,26.56
2018-05-14T10:11:06.102Z,26.56
2018-05-14T10:12:05.941Z,26.56
2018-05-14T10:13:05.701Z,26.50
2018-05-14T10:14:06.122Z,26.38
2018-05-14T10:15:05.543Z,26.25
2018-05-14T10:16:06.262Z,26.19
2018-05-14T10:17:06.262Z,26.31
2018-05-14T10:18:06.198Z,26.38
2018-05-14T10:19:05.643Z,26.31
2018-05-14T10:20:06.804Z,26.38
2018-05-14T10:21:05.548Z,26.31
2018-05-14T10:22:06.268Z,26.50
2018-05-14T10:23:06.206Z,26.44
2018-05-14T10:24:06.176Z,26.38
2018-05-14T10:25:06.132Z,26.44
2018-05-14T10:26:05.702Z,26.38
2018-05-14T10:27:06.503Z,26.31
2018-05-14T10:28:06.354Z,26.25
2018-05-14T10:29:06.438Z,26.31
2018-05-14T10:30:05.995Z,26.38
2018-05-14T10:31:05.869Z,26.88
2018-05-14T10:32:10.729Z,26.94
2018-05-14T10:33:06.343Z,26.88
2018-05-14T10:34:06.198Z,26.94
2018-05-14T10:35:05.459Z,26.88
2018-05-14T10:36:05.538Z,26.94
2018-05-14T10:37:05.768Z,26.88
2018-05-14T10:38:06.017Z,27.06
2018-05-14T10:39:06.249Z,27.06
2018-05-14T10:40:05.930Z,27.06
2018-05-14T10:41:05.956Z,27.06
2018-05-14T10:42:05.975Z,27.19
2018-05-14T10:43:05.454Z,27.31
2018-05-14T10:44:06.099Z,27.44
2018-05-14T10:45:05.562Z,27.44
2018-05-14T10:46:05.483Z,27.38
2018-05-14T10:47:06.397Z,27.50
2018-05-14T10:48:06.523Z,27.50
2018-05-14T10:49:06.034Z,27.50
2018-05-14T10:50:05.547Z,27.50
2018-05-14T10:51:06.168Z,27.62
2018-05-14T10:52:05.699Z,27.56
2018-05-14T10:53:06.342Z,27.44
2018-05-14T10:54:06.163Z,27.50
2018-05-14T10:55:06.376Z,27.62
2018-05-14T10:56:05.868Z,27.44
2018-05-14T10:57:06.424Z,27.31
2018-05-14T10:58:06.029Z,27.25
2018-05-14T10:59:05.715Z,27.19
2018-05-14T11:00:05.822Z,27.12
2018-05-14T11:01:05.781Z,27.12
2018-05-14T11:02:06.019Z,27.25
2018-05-14T11:03:06.635Z,27.12
2018-05-14T11:04:05.697Z,27.12
2018-05-14T11:05:06.623Z,27.25
2018-05-14T11:06:05.555Z,27.12
2018-05-14T11:07:06.036Z,27.06
2018-05-14T11:08:06.009Z,27.00
2018-05-14T11:09:10.709Z,26.94
2018-05-14T11:10:06.107Z,27.00
2018-05-14T11:11:06.323Z,26.94
2018-05-14T11:12:05.627Z,26.88
2018-05-14T11:13:11.167Z,26.81
2018-05-14T11:14:05.835Z,26.88
2018-05-14T11:15:05.459Z,27.00
2018-05-14T11:16:06.099Z,26.94
2018-05-14T11:17:05.888Z,26.88
2018-05-14T11:18:06.475Z,26.94
2018-05-14T11:19:05.846Z,27.00
2018-05-14T11:20:06.131Z,27.06
2018-05-14T11:21:06.110Z,26.88
2018-05-14T11:22:06.485Z,26.94
2018-05-14T11:23:06.258Z,26.88
2018-05-14T11:24:05.628Z,26.81
2018-05-14T11:25:05.759Z,26.75
2018-05-14T11:26:05.725Z,26.88
2018-05-14T11:27:05.945Z,26.94
2018-05-14T11:28:10.742Z,26.94
2018-05-14T11:29:06.173Z,27.12
2018-05-14T11:30:10.938Z,27.00
2018-05-14T11:31:05.637Z,26.88
2018-05-14T11:32:06.170Z,26.81
2018-05-14T11:33:06.445Z,26.81
2018-05-14T11:34:06.271Z,26.94
2018-05-14T11:35:05.538Z,27.06
2018-05-14T11:36:06.177Z,27.25
2018-05-14T11:37:10.735Z,27.12
2018-05-14T11:38:05.861Z,27.19
2018-05-14T11:39:06.418Z,27.00
2018-05-14T11:40:11.015Z,26.81
2018-05-14T11:41:05.628Z,26.75
2018-05-14T11:42:06.078Z,26.88
2018-05-14T11:43:05.661Z,26.81
2018-05-14T11:44:05.791Z,26.81
2018-05-14T11:45:06.110Z,26.69
2018-05-14T11:46:05.855Z,26.75
2018-05-14T11:47:06.103Z,26.88
2018-05-14T11:48:06.028Z,27.00
2018-05-14T11:49:06.129Z,27.00
2018-05-14T11:50:06.242Z,26.88
2018-05-14T11:51:05.779Z,27.31
2018-05-14T11:52:05.379Z,27.50
2018-05-14T11:53:05.825Z,27.38
2018-05-14T11:54:06.194Z,27.44
2018-05-14T11:55:06.043Z,27.12
2018-05-14T11:56:06.256Z,27.00
2018-05-14T11:57:05.537Z,27.00
2018-05-14T11:58:05.538Z,27.19
2018-05-14T11:59:06.177Z,27.06
2018-05-14T12:00:06.456Z,26.88
2018-05-14T12:01:05.634Z,26.88
2018-05-14T12:02:05.757Z,26.88
2018-05-14T12:03:05.823Z,26.81
2018-05-14T12:04:05.817Z,26.81
2018-05-14T12:05:05.941Z,26.81
2018-05-14T12:06:05.473Z,26.75
2018-05-14T12:07:06.026Z,26.69
2018-05-14T12:08:05.940Z,26.62
2018-05-14T12:09:11.174Z,26.50
2018-05-14T12:10:06.478Z,26.69
2018-05-14T12:11:06.401Z,26.69
2018-05-14T12:12:06.342Z,26.69
2018-05-14T12:13:10.625Z,26.75
2018-05-14T12:14:05.869Z,26.75
2018-05-14T12:15:05.712Z,26.81
2018-05-14T12:16:06.308Z,26.75
2018-05-14T12:17:11.018Z,26.75
2018-05-14T12:18:05.539Z,26.50
2018-05-14T12:19:06.656Z,26.31
2018-05-14T12:20:05.946Z,26.25
2018-05-14T12:21:06.047Z,26.12
2018-05-14T12:22:05.783Z,26.00
2018-05-14T12:23:06.014Z,26.00
2018-05-14T12:24:06.320Z,26.00
2018-05-14T12:25:05.975Z,26.06
2018-05-14T12:26:06.388Z,26.00
2018-05-14T12:27:05.769Z,26.06
2018-05-14T12:28:06.339Z,26.00
2018-05-14T12:29:05.695Z,25.94
2018-05-14T12:30:11.421Z,26.00
2018-05-14T12:31:05.619Z,26.00
2018-05-14T12:32:05.853Z,26.06
2018-05-14T12:33:05.867Z,26.19
2018-05-14T12:34:06.332Z,26.19
2018-05-14T12:35:06.332Z,26.06
2018-05-14T12:36:05.578Z,25.88
2018-05-14T12:37:06.433Z,25.81
2018-05-14T12:38:11.335Z,25.88
2018-05-14T12:39:05.537Z,26.00
2018-05-14T12:40:05.784Z,26.12
2018-05-14T12:41:06.093Z,26.12
2018-05-14T12:42:05.949Z,26.06
2018-05-14T12:43:06.099Z,26.06
2018-05-14T12:44:06.379Z,26.12
2018-05-14T12:45:05.544Z,26.06
2018-05-14T12:46:05.797Z,26.06
2018-05-14T12:47:11.279Z,26.00
2018-05-14T12:48:06.413Z,25.94
2018-05-14T12:49:05.612Z,25.81
2018-05-14T12:50:06.278Z,25.88
2018-05-14T12:51:05.866Z,25.94
2018-05-14T12:52:05.372Z,26.00